This is the latest recevied weather packets stored in our database for station/object N2UGS-WX. If no packets are shown the sender has not sent any weather packets the latest 10 day(s).
| Time | Temp. | Humidity | Pressure | Rain* | Wind** | Luminosity | Snow |
|---|---|---|---|---|---|---|---|
| 1777814402 | 8.33° C | 74% | 1014.2 hPa | 0 mm | - | - | - |
| 1777813502 | 7.78° C | 74% | 1014.2 hPa | 0 mm | - | - | - |
| 1777812902 | 7.22° C | 77% | 1014.2 hPa | 0 mm | - | - | - |
| 1777811942 | 6.67° C | 78% | 1014.2 hPa | 0 mm | - | - | - |
| 1777811102 | 6.11° C | 83% | 1014.2 hPa | 0 mm | - | - | - |
| 1777809302 | 4.44° C | 90% | 1014.2 hPa | 0 mm | - | - | - |
| 1777808402 | 3.33° C | 92% | 1014.2 hPa | 0 mm | - | - | - |
| 1777807801 | 2.22° C | 93% | 1014.2 hPa | 0 mm | - | - | - |
| 1777806902 | 1.67° C | 94% | 1014.2 hPa | 0 mm | - | - | - |
| 1777806002 | 0° C | 94% | 1014.2 hPa | 0 mm | - | - | - |
| 1777805103 | -0.56° C | 95% | 1014.2 hPa | 0 mm | - | - | - |
| 1777804202 | -1.11° C | 94% | 1014.2 hPa | 0 mm | - | - | - |
| 1777803303 | -1.67° C | 93% | 1014.2 hPa | 0 mm | - | - | - |
| 1777802403 | -1.67° C | 93% | 1014.2 hPa | 0 mm | - | - | - |
| 1777801503 | -1.67° C | 92% | 1014.2 hPa | 0 mm | - | - | - |
| 1777800603 | -1.67° C | 91% | 1014.6 hPa | 0 mm | - | - | - |
| 1777799702 | -1.67° C | 90% | 1014.6 hPa | 0 mm | - | - | - |
| 1777798803 | -1.11° C | 90% | 1014.6 hPa | 0 mm | - | - | - |
| 1777798142 | -1.11° C | 90% | 1014.6 hPa | 0 mm | - | - | - |
| 1777797242 | -0.56° C | 90% | 1014.6 hPa | 0 mm | - | - | - |
| 1777796342 | 0° C | 90% | 1014.6 hPa | 0 mm | - | - | - |
| 1777795444 | 0° C | 90% | 1014.6 hPa | 0 mm | - | - | - |
| 1777794542 | 0° C | 90% | 1014.6 hPa | 0 mm | - | - | - |
| 1777793702 | 0.56° C | 90% | 1014.6 hPa | 0 mm | - | - | - |
| 1777793042 | 0.56° C | 90% | 1014.6 hPa | 0 mm | - | - | - |
* Rain latest hour (hover to see other rain measurements)
** Current wind speed in m/s (hover to see current wind gust speed)